Fowlerville, Michigan
Current Conditions -  °F | °C
As of 3:54 PM on Friday 31 Oct 2014 (Local Time) from KOZW Reporting Station
Light Rain Light Rain  
Wind Chill: 26°   Ceiling: 800
Heat Index: 35°   Visibility: 7mi
Dew Point: 34°   Wind: 15mph
Humidity: 94%   Direction: 360°N
Pressure: 29.95"   Gusts: 23mph
Location:  42.66°N, 84.07°W
Report Text: KOZW 311954Z AUTO 36013G20KT 7SM -RA BKN008 OVC016 02/01 A2995 RMK AO2 T00190011
Loading
Personal Weather Stations






























Interactive Weather Map
Tropical Storm Tracking
New forecast layout! Learn more

10-Day Weather Forecast

Advertisements
Track Severe Weather on mobile